createdAt,value
2022-09-23T00:02:48.928Z,10.50
2022-09-23T00:05:21.942Z,10.50
2022-09-23T00:07:55.600Z,10.50
2022-09-23T00:10:31.098Z,10.50
2022-09-23T00:13:03.817Z,10.40
2022-09-23T00:15:40.384Z,10.50
2022-09-23T00:18:12.357Z,10.50
2022-09-23T00:20:45.503Z,10.50
2022-09-23T00:23:17.370Z,10.50
2022-09-23T00:25:58.060Z,10.50
2022-09-23T00:28:31.362Z,10.50
2022-09-23T00:31:06.003Z,10.30
2022-09-23T00:33:38.890Z,10.40
2022-09-23T00:36:15.843Z,10.40
2022-09-23T00:38:48.541Z,10.40
2022-09-23T00:41:21.326Z,10.50
2022-09-23T00:44:02.683Z,10.50
2022-09-23T00:46:41.396Z,10.40
2022-09-23T00:49:26.169Z,10.40
2022-09-23T00:52:13.126Z,10.40
2022-09-23T00:54:48.482Z,10.40
2022-09-23T00:57:20.635Z,10.20
2022-09-23T00:59:53.336Z,10.20
2022-09-23T01:02:26.431Z,10.20
2022-09-23T01:04:59.675Z,10.20
2022-09-23T01:07:32.772Z,10.20
2022-09-23T01:10:06.337Z,10.20
2022-09-23T01:13:06.127Z,10.20
2022-09-23T01:15:50.418Z,10.30
2022-09-23T01:18:43.957Z,10.30
2022-09-23T01:21:48.261Z,10.30
2022-09-23T01:24:49.576Z,10.40
2022-09-23T01:27:46.494Z,10.30
2022-09-23T01:31:15.978Z,10.40
2022-09-23T01:33:57.726Z,10.20
2022-09-23T01:36:43.617Z,10.10
2022-09-23T01:39:35.262Z,10.00
2022-09-23T01:42:30.024Z,9.90
2022-09-23T01:45:22.943Z,9.90
2022-09-23T01:48:14.259Z,9.90
2022-09-23T01:50:56.690Z,9.80
2022-09-23T01:53:39.605Z,9.70
2022-09-23T01:56:24.461Z,9.70
2022-09-23T01:59:29.760Z,9.70
2022-09-23T02:02:21.867Z,9.60
2022-09-23T02:05:02.505Z,9.50
2022-09-23T02:07:41.957Z,9.60
2022-09-23T02:10:25.496Z,9.60
2022-09-23T02:13:05.836Z,9.60
2022-09-23T02:15:50.116Z,9.60
2022-09-23T02:18:31.357Z,9.60
2022-09-23T02:21:09.082Z,9.60
2022-09-23T02:23:52.712Z,9.50
2022-09-23T02:26:38.081Z,9.50
2022-09-23T02:29:21.890Z,9.60
2022-09-23T02:32:15.508Z,9.60
2022-09-23T02:35:12.661Z,9.50
2022-09-23T02:38:29.560Z,9.60
2022-09-23T02:41:14.205Z,9.60
2022-09-23T02:44:00.435Z,9.60
2022-09-23T02:46:33.901Z,9.60
2022-09-23T02:49:17.437Z,9.60
2022-09-23T02:51:51.063Z,9.60
2022-09-23T02:54:27.691Z,7.30
2022-09-23T02:57:07.372Z,9.60
2022-09-23T02:59:39.352Z,9.60
2022-09-23T03:02:50.009Z,9.60
2022-09-23T03:05:31.695Z,9.60
2022-09-23T03:08:53.669Z,9.60
2022-09-23T03:11:26.304Z,9.50
2022-09-23T03:14:20.221Z,9.50
2022-09-23T03:17:22.347Z,9.50
2022-09-23T03:20:09.708Z,9.40
2022-09-23T03:22:51.240Z,9.40
2022-09-23T03:25:25.934Z,9.40
2022-09-23T03:28:00.851Z,9.40
2022-09-23T03:30:38.686Z,9.30
2022-09-23T03:33:16.653Z,9.30
2022-09-23T03:36:16.858Z,9.30
2022-09-23T03:38:55.767Z,10.60
2022-09-23T03:41:44.322Z,10.40
2022-09-23T03:49:30.059Z,9.70
2022-09-23T03:52:03.828Z,9.70
2022-09-23T03:54:35.687Z,9.60
2022-09-23T03:57:08.683Z,9.60
2022-09-23T03:59:41.405Z,9.70
2022-09-23T04:02:13.466Z,9.60
2022-09-23T04:04:46.812Z,9.60
2022-09-23T04:07:19.413Z,9.60
2022-09-23T04:09:52.666Z,9.60
2022-09-23T04:12:24.533Z,9.60
2022-09-23T04:14:57.215Z,9.60
2022-09-23T04:17:29.106Z,9.70
2022-09-23T04:20:02.065Z,9.70
2022-09-23T04:22:35.411Z,9.70
2022-09-23T04:25:08.052Z,9.70
2022-09-23T04:27:40.799Z,9.60
2022-09-23T04:30:13.981Z,9.60
2022-09-23T04:32:45.827Z,9.60
2022-09-23T04:40:24.301Z,9.40
2022-09-23T04:42:56.178Z,9.40
2022-09-23T04:45:31.003Z,9.30
2022-09-23T04:48:03.492Z,9.30
2022-09-23T04:50:37.418Z,9.30
2022-09-23T04:55:43.902Z,9.20
2022-09-23T05:00:49.090Z,9.10
2022-09-23T05:03:21.393Z,9.10
2022-09-23T05:05:53.308Z,9.20
2022-09-23T05:10:59.902Z,9.30
2022-09-23T05:13:33.085Z,9.30
2022-09-23T05:16:10.293Z,9.40
2022-09-23T05:18:44.260Z,9.40
2022-09-23T05:21:21.477Z,9.40
2022-09-23T05:23:56.399Z,9.50
2022-09-23T05:26:32.006Z,9.60
2022-09-23T05:29:04.159Z,9.70
2022-09-23T05:31:37.240Z,9.80
2022-09-23T05:36:42.389Z,9.90
2022-09-23T05:39:14.298Z,9.90
2022-09-23T05:41:47.091Z,10.00
2022-09-23T05:44:19.402Z,10.00
2022-09-23T05:46:51.392Z,10.00
2022-09-23T05:49:37.942Z,10.10
2022-09-23T05:52:17.166Z,10.20
2022-09-23T05:54:50.255Z,10.20
2022-09-23T05:59:55.232Z,10.30
2022-09-23T06:02:27.651Z,10.40
2022-09-23T06:05:00.279Z,10.40
2022-09-23T06:10:06.532Z,10.50
2022-09-23T06:15:13.113Z,10.70
2022-09-23T06:17:45.043Z,10.80
2022-09-23T06:23:11.383Z,10.90
2022-09-23T06:25:43.286Z,10.90
2022-09-23T06:33:32.413Z,11.00
2022-09-23T06:36:08.842Z,11.20
2022-09-23T06:38:45.009Z,11.20
2022-09-23T06:41:17.265Z,11.30
2022-09-23T06:43:49.866Z,11.40
2022-09-23T06:46:21.803Z,11.50
2022-09-23T06:48:54.495Z,11.80
2022-09-23T06:53:59.368Z,12.10
2022-09-23T06:56:34.850Z,12.20
2022-09-23T06:59:13.343Z,12.30
2022-09-23T07:01:47.498Z,12.40
2022-09-23T07:06:54.754Z,12.60
2022-09-23T07:09:28.142Z,12.70
2022-09-23T07:12:00.092Z,12.80
2022-09-23T07:14:32.684Z,12.80
2022-09-23T07:17:04.635Z,12.90
2022-09-23T07:19:37.169Z,13.00
2022-09-23T07:22:09.082Z,13.40
2022-09-23T07:24:41.632Z,13.20
2022-09-23T07:27:16.611Z,13.00
2022-09-23T07:29:52.135Z,13.10
2022-09-23T07:32:24.014Z,13.40
2022-09-23T07:34:57.851Z,13.40
2022-09-23T07:37:29.685Z,13.50
2022-09-23T07:40:02.385Z,13.60
2022-09-23T07:42:34.218Z,13.70
2022-09-23T07:45:09.313Z,13.80
2022-09-23T07:47:41.222Z,13.80
2022-09-23T07:50:13.711Z,13.80
2022-09-23T07:52:45.559Z,13.90
2022-09-23T07:55:20.947Z,13.80
2022-09-23T07:57:53.120Z,14.00
2022-09-23T08:00:25.624Z,14.10
2022-09-23T08:02:57.521Z,14.10
2022-09-23T08:08:02.444Z,14.20
2022-09-23T08:10:34.676Z,14.40
2022-09-23T08:15:40.644Z,15.60
2022-09-23T08:18:12.497Z,16.70
2022-09-23T08:23:21.335Z,18.00
2022-09-23T08:25:59.953Z,18.00
2022-09-23T08:28:36.271Z,18.50
2022-09-23T08:31:08.477Z,18.70
2022-09-23T08:33:41.881Z,19.00
2022-09-23T08:38:46.406Z,18.80
2022-09-23T08:41:33.168Z,19.10
2022-09-23T08:44:15.424Z,18.90
2022-09-23T08:47:03.424Z,19.00
2022-09-23T08:49:40.928Z,19.30
2022-09-23T08:52:29.523Z,19.30
2022-09-23T08:55:04.077Z,19.40
2022-09-23T08:58:25.644Z,19.50
2022-09-23T09:01:14.517Z,19.80
2022-09-23T09:03:55.738Z,19.80
2022-09-23T09:07:37.889Z,19.90
2022-09-23T09:13:07.330Z,19.90
2022-09-23T09:16:13.481Z,19.70
2022-09-23T09:18:56.222Z,19.80
2022-09-23T09:21:41.085Z,19.80
2022-09-23T09:24:21.649Z,20.00
2022-09-23T09:26:53.897Z,20.10
2022-09-23T09:29:39.175Z,20.20
2022-09-23T09:32:36.073Z,20.70
2022-09-23T09:35:26.060Z,20.80
2022-09-23T09:37:57.916Z,21.10
2022-09-23T09:40:30.574Z,21.00
2022-09-23T09:43:04.653Z,20.90
2022-09-23T09:46:01.931Z,21.20
2022-09-23T09:48:54.043Z,21.40
2022-09-23T09:51:28.944Z,21.10
2022-09-23T09:54:27.628Z,20.80
2022-09-23T09:57:05.596Z,21.20
2022-09-23T09:59:42.371Z,21.80
2022-09-23T10:02:30.714Z,22.10
2022-09-23T10:05:07.508Z,22.60
2022-09-23T10:07:39.689Z,23.10
2022-09-23T10:10:32.454Z,23.10
2022-09-23T10:13:16.091Z,23.30
2022-09-23T10:15:48.669Z,23.10
2022-09-23T10:18:32.213Z,23.00
2022-09-23T10:21:27.969Z,22.70
2022-09-23T10:24:02.631Z,22.50
2022-09-23T10:26:43.676Z,22.50
2022-09-23T10:29:37.866Z,22.80
2022-09-23T10:32:31.073Z,23.00
2022-09-23T10:35:09.682Z,23.10
2022-09-23T10:37:59.374Z,24.00
2022-09-23T10:40:59.558Z,24.00
2022-09-23T10:44:04.598Z,24.60
2022-09-23T10:46:44.780Z,24.90
2022-09-23T10:49:58.114Z,24.40
2022-09-23T10:53:02.733Z,23.90
2022-09-23T10:55:46.653Z,24.00
2022-09-23T10:58:47.453Z,24.20
2022-09-23T11:01:35.990Z,24.20
2022-09-23T11:04:35.940Z,24.20
2022-09-23T11:07:40.631Z,24.30
2022-09-23T11:10:56.173Z,24.30
2022-09-23T11:13:54.206Z,24.40
2022-09-23T11:17:00.564Z,24.30
2022-09-23T11:19:56.239Z,24.40
2022-09-23T11:23:26.438Z,23.70
2022-09-23T11:26:33.501Z,23.00
2022-09-23T11:29:43.199Z,23.20
2022-09-23T11:32:45.672Z,23.60
2022-09-23T11:35:33.107Z,23.80
2022-09-23T11:38:12.329Z,24.10
2022-09-23T11:40:46.761Z,23.90
2022-09-23T11:43:28.809Z,22.90
2022-09-23T11:46:07.061Z,23.40
2022-09-23T11:48:49.203Z,22.90
2022-09-23T11:51:40.736Z,22.20
2022-09-23T11:54:25.302Z,22.30
2022-09-23T11:57:01.601Z,22.40
2022-09-23T12:03:06.041Z,22.10
2022-09-23T12:05:45.943Z,20.60
2022-09-23T12:08:36.987Z,22.20
2022-09-23T12:11:51.099Z,22.20
2022-09-23T12:15:05.234Z,22.90
2022-09-23T12:18:09.376Z,23.80
2022-09-23T12:20:59.764Z,24.00
2022-09-23T12:24:19.158Z,23.70
2022-09-23T12:26:59.151Z,23.70
2022-09-23T12:29:32.772Z,23.70
2022-09-23T12:32:09.777Z,23.60
2022-09-23T12:34:50.201Z,23.40
2022-09-23T12:37:43.213Z,24.30
2022-09-23T12:40:35.415Z,23.30
2022-09-23T12:43:35.850Z,22.90
2022-09-23T12:46:18.408Z,22.70
2022-09-23T12:49:01.631Z,22.80
2022-09-23T12:51:37.695Z,23.10
2022-09-23T12:54:23.625Z,23.10
2022-09-23T12:56:56.245Z,22.50
2022-09-23T12:59:32.010Z,22.00
2022-09-23T13:03:11.806Z,21.80
2022-09-23T13:06:20.091Z,21.80
2022-09-23T13:08:53.094Z,21.80
2022-09-23T13:14:04.531Z,21.60
2022-09-23T13:16:44.066Z,21.70
2022-09-23T13:19:28.181Z,22.00
2022-09-23T13:22:12.253Z,22.30
2022-09-23T13:24:54.538Z,22.50
2022-09-23T13:27:34.522Z,22.70
2022-09-23T13:30:26.330Z,23.00
2022-09-23T13:33:27.536Z,23.10
2022-09-23T13:36:04.628Z,23.00
2022-09-23T13:41:21.091Z,23.00
2022-09-23T13:43:59.172Z,22.40
2022-09-23T13:46:43.461Z,22.10
2022-09-23T13:49:33.998Z,22.00
2022-09-23T13:52:23.653Z,22.10
2022-09-23T13:54:56.430Z,22.40
2022-09-23T13:57:31.201Z,22.60
2022-09-23T14:00:25.627Z,22.30
2022-09-23T14:02:57.473Z,22.00
2022-09-23T14:05:36.301Z,21.90
2022-09-23T14:13:29.120Z,21.80
2022-09-23T14:16:04.411Z,22.00
2022-09-23T14:18:47.140Z,21.90
2022-09-23T14:21:37.284Z,22.10
2022-09-23T14:24:24.099Z,21.80
2022-09-23T14:27:16.225Z,21.90
2022-09-23T14:29:49.464Z,21.90
2022-09-23T14:32:27.865Z,21.50
2022-09-23T14:37:57.337Z,21.70
2022-09-23T14:40:38.559Z,21.80
2022-09-23T14:43:23.321Z,21.60
2022-09-23T14:45:59.070Z,21.70
2022-09-23T14:48:34.163Z,22.00
2022-09-23T14:51:13.251Z,21.90
2022-09-23T14:53:49.131Z,21.80
2022-09-23T14:56:24.130Z,22.00
2022-09-23T14:59:00.636Z,21.80
2022-09-23T15:01:33.291Z,21.90
2022-09-23T15:04:22.756Z,22.00
2022-09-23T15:06:59.991Z,24.20
2022-09-23T15:09:38.868Z,21.80
2022-09-23T15:12:19.310Z,21.80
2022-09-23T15:14:56.603Z,21.80
2022-09-23T15:17:37.867Z,21.50
2022-09-23T15:20:30.129Z,21.50
2022-09-23T15:23:02.470Z,21.30
2022-09-23T15:25:40.624Z,21.20
2022-09-23T15:28:13.226Z,21.30
2022-09-23T15:30:46.015Z,21.40
2022-09-23T15:38:24.491Z,21.60
2022-09-23T15:40:56.513Z,21.70
2022-09-23T15:43:29.270Z,21.70
2022-09-23T15:46:20.094Z,21.60
2022-09-23T15:49:01.605Z,21.50
2022-09-23T15:51:34.525Z,21.40
2022-09-23T15:54:12.872Z,21.20
2022-09-23T16:01:52.447Z,21.10
2022-09-23T16:04:26.485Z,21.20
2022-09-23T16:12:04.222Z,20.80
2022-09-23T16:14:36.931Z,20.70
2022-09-23T16:17:13.477Z,20.60
2022-09-23T16:19:46.242Z,20.60
2022-09-23T16:22:18.585Z,20.50
2022-09-23T16:24:50.487Z,20.50
2022-09-23T16:27:23.171Z,20.40
2022-09-23T16:29:55.458Z,20.30
2022-09-23T16:32:27.712Z,20.30
2022-09-23T16:40:07.751Z,20.10
2022-09-23T16:45:19.406Z,20.00
2022-09-23T16:47:52.619Z,20.00
2022-09-23T16:50:24.963Z,20.00
2022-09-23T16:52:57.252Z,19.90
2022-09-23T16:55:29.475Z,19.90
2022-09-23T17:00:52.838Z,19.90
2022-09-23T17:03:41.210Z,19.80
2022-09-23T17:06:15.085Z,19.70
2022-09-23T17:08:51.023Z,19.60
2022-09-23T17:11:24.015Z,19.60
2022-09-23T17:13:55.924Z,19.50
2022-09-23T17:16:32.746Z,19.50
2022-09-23T17:19:10.362Z,19.40
2022-09-23T17:24:15.499Z,19.40
2022-09-23T17:26:52.619Z,19.30
2022-09-23T17:29:30.370Z,19.30
2022-09-23T17:32:04.967Z,19.20
2022-09-23T17:34:37.695Z,19.10
2022-09-23T17:42:15.643Z,18.80
2022-09-23T17:47:20.869Z,18.80
2022-09-23T17:49:54.835Z,18.80
2022-09-23T17:54:59.738Z,18.70
2022-09-23T18:00:07.519Z,18.60
2022-09-23T18:05:16.903Z,18.50
2022-09-23T18:07:49.730Z,18.50
2022-09-23T18:10:21.578Z,18.50
2022-09-23T18:12:54.239Z,18.40
2022-09-23T18:17:58.848Z,18.30
2022-09-23T18:20:32.157Z,18.20
2022-09-23T18:23:04.106Z,18.10
2022-09-23T18:25:39.528Z,18.00
2022-09-23T18:28:12.412Z,17.90
2022-09-23T18:30:58.025Z,17.80
2022-09-23T18:33:30.720Z,17.80
2022-09-23T18:36:04.907Z,17.60
2022-09-23T18:38:36.811Z,17.50
2022-09-23T18:41:09.718Z,17.50
2022-09-23T18:43:47.601Z,17.40
2022-09-23T18:46:25.034Z,17.30
2022-09-23T18:49:17.204Z,17.10
2022-09-23T18:51:56.142Z,17.20
2022-09-23T18:54:28.973Z,17.10
2022-09-23T18:57:01.684Z,17.10
2022-09-23T19:02:08.657Z,17.10
2022-09-23T19:04:41.052Z,17.40
2022-09-23T19:07:13.280Z,17.70
2022-09-23T19:12:18.636Z,17.40
2022-09-23T19:14:50.750Z,17.30
2022-09-23T19:17:23.422Z,17.20
2022-09-23T19:19:55.615Z,17.00
2022-09-23T19:22:28.000Z,16.90
2022-09-23T19:25:00.171Z,16.90
2022-09-23T19:27:34.956Z,16.80
2022-09-23T19:30:07.844Z,16.70
2022-09-23T19:37:49.644Z,16.60
2022-09-23T19:40:21.589Z,16.60
2022-09-23T19:42:54.529Z,16.60
2022-09-23T19:48:02.506Z,16.40
2022-09-23T19:50:39.102Z,16.40
2022-09-23T19:53:11.558Z,15.80
2022-09-23T19:55:44.259Z,16.40
2022-09-23T19:58:16.966Z,16.40
2022-09-23T20:00:48.923Z,16.30
2022-09-23T20:03:21.663Z,16.40
2022-09-23T20:05:57.151Z,16.40
2022-09-23T20:08:37.131Z,16.40
2022-09-23T20:11:23.704Z,16.40
2022-09-23T20:14:04.475Z,16.30
2022-09-23T20:19:10.453Z,16.30
2022-09-23T20:21:42.276Z,16.20
2022-09-23T20:24:15.062Z,16.20
2022-09-23T20:27:05.748Z,16.20
2022-09-23T20:29:37.951Z,16.20
2022-09-23T20:32:11.761Z,16.20
2022-09-23T20:34:46.615Z,16.20
2022-09-23T20:37:21.430Z,16.20
2022-09-23T20:39:53.608Z,16.20
2022-09-23T20:42:27.204Z,16.10
2022-09-23T20:44:59.131Z,16.10
2022-09-23T20:47:32.515Z,16.10
2022-09-23T20:50:04.789Z,16.20
2022-09-23T20:55:10.306Z,16.10
2022-09-23T20:57:43.215Z,16.10
2022-09-23T21:00:16.337Z,16.00
2022-09-23T21:02:48.157Z,16.00
2022-09-23T21:07:53.113Z,16.00
2022-09-23T21:12:59.482Z,16.00
2022-09-23T21:15:32.815Z,15.90
2022-09-23T21:20:37.767Z,15.80
2022-09-23T21:23:10.057Z,15.70
2022-09-23T21:25:44.925Z,15.60
2022-09-23T21:30:52.101Z,15.60
2022-09-23T21:33:24.059Z,15.60
2022-09-23T21:35:58.785Z,15.60
2022-09-23T21:38:34.218Z,15.60
2022-09-23T21:41:15.070Z,15.60
2022-09-23T21:43:48.126Z,15.60
2022-09-23T21:46:22.286Z,15.70
2022-09-23T21:48:57.423Z,15.80
2022-09-23T21:51:37.972Z,15.80
2022-09-23T21:54:16.745Z,15.90
2022-09-23T21:56:49.193Z,15.80
2022-09-23T22:01:54.559Z,15.70
2022-09-23T22:04:26.563Z,15.60
2022-09-23T22:07:00.544Z,15.60
2022-09-23T22:09:32.388Z,15.60
2022-09-23T22:14:38.860Z,15.70
2022-09-23T22:17:12.432Z,15.70
2022-09-23T22:19:47.150Z,15.70
2022-09-23T22:22:19.932Z,15.70
2022-09-23T22:24:52.239Z,15.50
2022-09-23T22:30:17.599Z,15.30
2022-09-23T22:32:54.925Z,15.20
2022-09-23T22:35:27.350Z,15.10
2022-09-23T22:38:01.247Z,15.10
2022-09-23T22:40:33.226Z,15.30
2022-09-23T22:43:05.757Z,15.30
2022-09-23T22:45:39.532Z,15.30
2022-09-23T22:48:13.886Z,15.30
2022-09-23T22:50:46.108Z,15.20
2022-09-23T22:53:19.023Z,15.10
2022-09-23T22:56:01.021Z,15.10
2022-09-23T22:58:33.466Z,15.00
2022-09-23T23:03:40.576Z,14.90
2022-09-23T23:06:12.544Z,14.90
2022-09-23T23:08:45.158Z,14.80
2022-09-23T23:16:24.407Z,14.80
2022-09-23T23:18:56.834Z,14.90
2022-09-23T23:21:28.670Z,14.90
2022-09-23T23:26:36.684Z,15.00
2022-09-23T23:29:12.149Z,15.00
2022-09-23T23:31:44.270Z,15.00
2022-09-23T23:34:20.044Z,15.00
2022-09-23T23:36:56.468Z,14.80
2022-09-23T23:39:29.046Z,14.80
2022-09-23T23:42:00.977Z,14.80
2022-09-23T23:47:06.645Z,14.90
2022-09-23T23:49:39.275Z,15.00
2022-09-23T23:52:11.131Z,15.10
2022-09-23T23:54:44.337Z,15.10
2022-09-23T23:57:16.222Z,15.10
2022-09-23T23:59:48.779Z,15.10
